This is the latest recevied weather packets stored in our database for station/object Dunnningn. If no packets are shown the sender has not sent any weather packets the latest 1 day(s).
| Time | Temp. | Humidity | Pressure | Rain* | Wind** | Luminosity | Snow |
|---|---|---|---|---|---|---|---|
| 1836273905 | 14.44° C | 86% | 1020.8 hPa | 0 mm | 3.13 m/s, 130° | - | - |
| 1778007735 | 11.67° C | 88% | 1007.9 hPa | 4.06 mm | 3.58 m/s, 227° | - | - |
| 1778005932 | 11.67° C | 90% | 1007.7 hPa | 4.06 mm | 2.68 m/s, 188° | - | - |
| 1778004131 | 12.22° C | 89% | 1007.8 hPa | 4.06 mm | 0.45 m/s, 186° | - | - |
| 1778002330 | 12.22° C | 88% | 1007.8 hPa | 4.06 mm | 1.79 m/s, 188° | - | - |
| 1778000530 | 12.22° C | 88% | 1007.8 hPa | 4.06 mm | 2.24 m/s, 209° | - | - |
| 1777998731 | 12.22° C | 89% | 1007.6 hPa | 4.06 mm | 0.89 m/s, 213° | - | - |
| 1777995130 | 15.56° C | 70% | 1006.8 hPa | 0.51 mm | 2.24 m/s, 180° | - | - |
| 1777993336 | 15.56° C | 69% | 1006.9 hPa | 0.51 mm | 1.79 m/s, 120° | - | - |
| 1777991532 | 16.11° C | 67% | 1007 hPa | 0.51 mm | 1.34 m/s, 154° | - | - |
| 1777989730 | 14.44° C | 73% | 1007.2 hPa | 0.51 mm | 3.13 m/s, 153° | - | - |
| 1777987930 | 14.44° C | 75% | 1007.4 hPa | 0.51 mm | 3.13 m/s, 130° | - | - |
| 1777986130 | 13.33° C | 82% | 1007.9 hPa | 0.51 mm | 3.58 m/s, 141° | - | - |
| 1777984330 | 13.33° C | 79% | 1008.1 hPa | 0.51 mm | 4.02 m/s, 133° | - | - |
| 1777982530 | 13.33° C | 82% | 1008.2 hPa | 0.51 mm | 1.34 m/s, 142° | - | - |
| 1777980730 | 13.33° C | 78% | 1008.1 hPa | 0.25 mm | 0.89 m/s, 144° | - | - |
| 1777978931 | 14.44° C | 81% | 1008.3 hPa | 0 mm | 2.68 m/s, 155° | - | - |
| 1777977131 | 15° C | 73% | 1008.3 hPa | 0 mm | 0.89 m/s, 181° | - | - |
| 1777975332 | 15.56° C | 68% | 1008.3 hPa | 0 mm | 1.79 m/s, 80° | - | - |
| 1777973532 | 15.56° C | 68% | 1008.3 hPa | 0 mm | 1.79 m/s, 0° | - | - |
| 1777971732 | 16.11° C | 68% | 1008.4 hPa | 0 mm | 3.13 m/s, 312° | - | - |
| 1777969931 | 15.56° C | 66% | 1008.5 hPa | 0 mm | 1.79 m/s, 315° | - | - |
| 1777968130 | 15.56° C | 72% | 1008.7 hPa | 0 mm | 0.89 m/s, 284° | - | - |
| 1777966330 | 13.33° C | 82% | 1008.9 hPa | 0 mm | 0.89 m/s, 263° | - | - |
| 1777964531 | 12.22° C | 87% | 1009.1 hPa | 0 mm | 0 m/s | - | - |
* Rain since midnight (hover to see other rain measurements)
** Current wind speed in m/s (hover to see current wind gust speed)